createdAt,value
2019-03-26T00:01:04.998Z,0.00
2019-03-26T00:03:35.886Z,0.00
2019-03-26T00:06:05.581Z,0.00
2019-03-26T00:08:35.102Z,0.50
2019-03-26T00:11:05.431Z,1.00
2019-03-26T00:13:36.479Z,0.00
2019-03-26T00:16:06.154Z,3.00
2019-03-26T00:18:35.676Z,0.00
2019-03-26T00:21:05.354Z,2.00
2019-03-26T00:23:35.029Z,2.00
2019-03-26T00:26:04.630Z,0.50
2019-03-26T00:28:34.153Z,0.50
2019-03-26T00:31:03.848Z,0.00
2019-03-26T00:33:36.642Z,1.00
2019-03-26T00:36:04.769Z,2.00
2019-03-26T00:38:34.345Z,2.00
2019-03-26T00:41:03.980Z,0.00
2019-03-26T00:43:33.549Z,2.00
2019-03-26T00:46:03.076Z,0.00
2019-03-26T00:48:32.608Z,2.00
2019-03-26T00:51:02.140Z,0.50
2019-03-26T00:53:31.758Z,0.00
2019-03-26T00:56:01.269Z,1.00
2019-03-26T00:58:30.778Z,2.00
2019-03-26T01:01:00.461Z,1.50
2019-03-26T01:03:30.103Z,0.00
2019-03-26T01:05:59.683Z,0.00
2019-03-26T01:08:29.352Z,2.00
2019-03-26T01:10:58.860Z,0.00
2019-03-26T01:13:28.512Z,0.50
2019-03-26T01:15:58.133Z,2.00
2019-03-26T01:18:27.745Z,1.50
2019-03-26T01:20:57.294Z,0.50
2019-03-26T01:23:27.114Z,2.00
2019-03-26T01:25:56.652Z,2.00
2019-03-26T01:28:26.205Z,2.00
2019-03-26T01:30:59.086Z,2.00
2019-03-26T01:33:30.969Z,1.50
2019-03-26T01:36:00.677Z,0.00
2019-03-26T01:38:31.394Z,1.00
2019-03-26T01:41:00.982Z,0.00
2019-03-26T01:43:32.700Z,1.00
2019-03-26T01:48:30.881Z,2.00
2019-03-26T01:51:00.479Z,2.00
2019-03-26T01:53:30.011Z,2.00
2019-03-26T01:55:59.633Z,0.00
2019-03-26T01:58:29.206Z,0.00
2019-03-26T02:00:58.795Z,0.50
2019-03-26T02:03:28.371Z,0.00
2019-03-26T02:05:57.900Z,0.00
2019-03-26T02:08:27.410Z,0.00
2019-03-26T02:10:57.040Z,0.50
2019-03-26T02:13:26.561Z,1.00
2019-03-26T02:15:56.086Z,0.00
2019-03-26T02:18:25.640Z,0.00
2019-03-26T02:20:55.182Z,2.00
2019-03-26T02:23:24.708Z,0.50
2019-03-26T02:25:54.319Z,0.00
2019-03-26T02:28:23.860Z,0.00
2019-03-26T02:30:53.369Z,2.00
2019-03-26T02:33:22.917Z,0.00
2019-03-26T02:35:52.504Z,0.00
2019-03-26T02:38:22.051Z,1.00
2019-03-26T02:40:51.626Z,0.00
2019-03-26T02:43:21.169Z,0.00
2019-03-26T02:45:50.739Z,2.00
2019-03-26T02:48:20.349Z,2.00
2019-03-26T02:50:49.995Z,0.00
2019-03-26T02:53:19.523Z,2.00
2019-03-26T02:55:49.163Z,0.00
2019-03-26T02:58:18.651Z,2.00
2019-03-26T03:00:48.231Z,2.00
2019-03-26T03:03:17.794Z,0.50
2019-03-26T03:05:47.368Z,2.00
2019-03-26T03:08:16.990Z,0.00
2019-03-26T03:10:46.663Z,0.00
2019-03-26T03:13:16.384Z,0.50
2019-03-26T03:15:45.954Z,0.00
2019-03-26T03:18:15.507Z,0.00
2019-03-26T03:20:45.120Z,0.00
2019-03-26T03:23:14.635Z,0.00
2019-03-26T03:25:45.473Z,1.50
2019-03-26T03:28:15.059Z,0.00
2019-03-26T03:30:44.687Z,0.00
2019-03-26T03:33:14.200Z,0.00
2019-03-26T03:35:51.823Z,2.00
2019-03-26T03:38:15.229Z,0.00
2019-03-26T03:40:44.857Z,2.00
2019-03-26T03:43:14.409Z,0.50
2019-03-26T03:45:44.140Z,1.50
2019-03-26T03:48:13.822Z,0.00
2019-03-26T03:50:45.972Z,2.00
2019-03-26T03:53:18.226Z,0.00
2019-03-26T03:55:50.398Z,2.00
2019-03-26T03:58:22.089Z,1.50
2019-03-26T04:00:51.673Z,0.00
2019-03-26T04:03:21.358Z,0.00
2019-03-26T04:06:07.813Z,2.00
2019-03-26T04:08:22.129Z,0.00
2019-03-26T04:10:51.760Z,0.00
2019-03-26T04:13:21.317Z,2.00
2019-03-26T04:15:50.913Z,1.00
2019-03-26T04:18:20.452Z,0.50
2019-03-26T04:20:49.993Z,1.50
2019-03-26T04:23:19.532Z,0.00
2019-03-26T04:25:49.197Z,1.00
2019-03-26T04:28:18.767Z,0.50
2019-03-26T04:30:48.285Z,0.00
2019-03-26T04:33:17.802Z,0.00
2019-03-26T04:35:47.400Z,2.00
2019-03-26T04:38:16.928Z,0.00
2019-03-26T04:40:46.540Z,0.00
2019-03-26T04:43:18.851Z,0.00
2019-03-26T04:45:47.439Z,0.00
2019-03-26T04:48:17.014Z,0.00
2019-03-26T04:50:46.531Z,0.00
2019-03-26T04:53:16.083Z,0.00
2019-03-26T04:55:45.594Z,0.00
2019-03-26T04:58:15.110Z,2.50
2019-03-26T05:00:44.632Z,1.50
2019-03-26T05:03:14.142Z,0.50
2019-03-26T05:05:43.683Z,0.00
2019-03-26T05:08:13.233Z,0.00
2019-03-26T05:10:42.796Z,0.00
2019-03-26T05:13:12.411Z,0.00
2019-03-26T05:15:42.022Z,0.00
2019-03-26T05:18:11.551Z,2.00
2019-03-26T05:20:41.063Z,0.00
2019-03-26T05:23:10.634Z,0.00
2019-03-26T05:25:40.147Z,2.00
2019-03-26T05:28:09.662Z,1.00
2019-03-26T05:30:40.764Z,0.00
2019-03-26T05:33:10.297Z,0.00
2019-03-26T05:35:39.829Z,0.00
2019-03-26T05:38:09.419Z,0.00
2019-03-26T05:40:38.949Z,0.00
2019-03-26T05:43:08.562Z,0.00
2019-03-26T05:45:38.156Z,0.00
2019-03-26T05:48:07.674Z,0.00
2019-03-26T05:50:37.187Z,1.00
2019-03-26T05:53:06.838Z,2.00
2019-03-26T05:55:36.383Z,1.50
2019-03-26T05:58:05.935Z,2.00
2019-03-26T06:00:35.511Z,2.00
2019-03-26T06:03:05.048Z,0.00
2019-03-26T06:05:34.567Z,0.50
2019-03-26T06:08:04.184Z,0.00
2019-03-26T06:10:34.107Z,2.00
2019-03-26T06:13:03.653Z,0.00
2019-03-26T06:15:33.196Z,1.00
2019-03-26T06:18:02.740Z,1.50
2019-03-26T06:20:32.299Z,2.00
2019-03-26T06:23:01.846Z,0.50
2019-03-26T06:25:31.365Z,2.00
2019-03-26T06:28:01.004Z,1.00
2019-03-26T06:30:30.514Z,2.00
2019-03-26T06:33:00.124Z,1.00
2019-03-26T06:35:29.671Z,0.50
2019-03-26T06:37:59.184Z,2.00
2019-03-26T06:40:28.805Z,2.50
2019-03-26T06:42:58.343Z,2.00
2019-03-26T06:45:27.951Z,1.00
2019-03-26T06:47:57.515Z,1.00
2019-03-26T06:50:27.057Z,2.00
2019-03-26T06:52:56.586Z,2.00
2019-03-26T06:55:26.119Z,2.00
2019-03-26T06:57:55.659Z,0.50
2019-03-26T07:00:31.324Z,1.00
2019-03-26T07:03:02.602Z,2.00
2019-03-26T07:05:32.315Z,2.00
2019-03-26T07:08:01.910Z,2.00
2019-03-26T07:10:31.778Z,2.00
2019-03-26T07:13:01.430Z,2.00
2019-03-26T07:15:31.021Z,2.00
2019-03-26T07:18:00.739Z,2.00
2019-03-26T07:20:30.260Z,2.00
2019-03-26T07:22:59.934Z,2.00
2019-03-26T07:25:29.632Z,4.00
2019-03-26T07:27:59.322Z,0.50
2019-03-26T07:30:39.569Z,2.00
2019-03-26T07:33:09.220Z,4.00
2019-03-26T07:35:38.921Z,4.00
2019-03-26T07:38:08.632Z,3.50
2019-03-26T07:40:38.286Z,4.00
2019-03-26T07:43:08.008Z,2.00
2019-03-26T07:45:37.694Z,2.50
2019-03-26T07:48:07.355Z,5.00
2019-03-26T07:50:36.985Z,4.00
2019-03-26T07:53:06.726Z,4.00
2019-03-26T07:55:36.405Z,2.00
2019-03-26T07:58:06.144Z,4.00
2019-03-26T08:00:39.781Z,3.50
2019-03-26T08:03:09.374Z,2.00
2019-03-26T08:05:39.043Z,2.00
2019-03-26T08:08:08.699Z,2.00
2019-03-26T08:10:38.306Z,4.00
2019-03-26T08:13:07.916Z,3.75
2019-03-26T08:15:37.622Z,2.25
2019-03-26T08:18:07.220Z,1.75
2019-03-26T08:20:37.136Z,1.75
2019-03-26T08:23:06.894Z,3.00
2019-03-26T08:25:36.492Z,3.75
2019-03-26T08:28:08.206Z,1.75
2019-03-26T08:30:37.801Z,2.75
2019-03-26T08:33:08.647Z,2.50
2019-03-26T08:35:38.186Z,2.50
2019-03-26T08:38:12.723Z,1.50
2019-03-26T08:40:39.049Z,0.00
2019-03-26T08:43:08.617Z,3.75
2019-03-26T08:45:38.132Z,0.00
2019-03-26T08:48:09.957Z,1.75
2019-03-26T08:50:39.694Z,1.25
2019-03-26T08:53:09.210Z,1.75
2019-03-26T08:55:38.834Z,0.75
2019-03-26T08:58:08.583Z,1.75
2019-03-26T09:00:38.133Z,1.75
2019-03-26T09:03:07.873Z,1.75
2019-03-26T09:05:37.434Z,2.75
2019-03-26T09:08:07.199Z,1.75
2019-03-26T09:10:36.808Z,1.50
2019-03-26T09:13:06.500Z,1.50
2019-03-26T09:15:36.028Z,4.50
2019-03-26T09:18:05.757Z,13.00
2019-03-26T09:20:35.291Z,2.00
2019-03-26T09:23:04.821Z,1.00
2019-03-26T09:25:34.346Z,1.00
2019-03-26T09:28:03.980Z,1.00
2019-03-26T09:30:33.578Z,3.00
2019-03-26T09:33:05.189Z,3.00
2019-03-26T09:35:34.736Z,1.00
2019-03-26T09:38:04.308Z,1.00
2019-03-26T09:40:33.805Z,0.00
2019-03-26T09:43:03.370Z,1.00
2019-03-26T09:45:33.020Z,1.50
2019-03-26T09:48:02.580Z,1.00
2019-03-26T09:50:34.043Z,1.00
2019-03-26T09:53:03.857Z,0.25
2019-03-26T09:55:33.560Z,0.00
2019-03-26T09:58:03.153Z,1.00
2019-03-26T10:00:32.781Z,3.00
2019-03-26T10:03:02.515Z,1.00
2019-03-26T10:05:32.032Z,1.00
2019-03-26T10:08:01.558Z,3.00
2019-03-26T10:10:31.210Z,0.50
2019-03-26T10:13:00.768Z,3.00
2019-03-26T10:15:30.301Z,1.00
2019-03-26T10:17:59.842Z,1.00
2019-03-26T10:20:29.465Z,1.00
2019-03-26T10:22:59.105Z,2.50
2019-03-26T10:25:29.833Z,3.00
2019-03-26T10:27:59.334Z,2.00
2019-03-26T10:30:36.595Z,1.00
2019-03-26T10:33:06.684Z,2.50
2019-03-26T10:35:36.290Z,1.00
2019-03-26T10:38:06.839Z,1.00
2019-03-26T10:40:37.311Z,3.00
2019-03-26T10:43:07.016Z,1.00
2019-03-26T10:45:36.711Z,2.50
2019-03-26T10:48:06.557Z,1.00
2019-03-26T10:50:36.354Z,1.00
2019-03-26T10:53:06.046Z,1.00
2019-03-26T10:55:35.693Z,1.00
2019-03-26T10:58:05.313Z,1.00
2019-03-26T11:00:35.158Z,1.00
2019-03-26T11:03:04.941Z,1.00
2019-03-26T11:05:34.564Z,1.00
2019-03-26T11:08:04.292Z,0.75
2019-03-26T11:10:33.933Z,1.00
2019-03-26T11:13:03.563Z,1.00
2019-03-26T11:15:33.102Z,0.50
2019-03-26T11:18:02.678Z,1.00
2019-03-26T11:20:32.313Z,1.00
2019-03-26T11:23:01.871Z,1.00
2019-03-26T11:25:31.484Z,1.50
2019-03-26T11:28:01.155Z,3.00
2019-03-26T11:30:30.764Z,3.00
2019-03-26T11:33:00.426Z,0.00
2019-03-26T11:35:29.966Z,1.00
2019-03-26T11:37:59.578Z,1.00
2019-03-26T11:40:29.130Z,0.25
2019-03-26T11:42:58.661Z,0.00
2019-03-26T11:45:28.325Z,1.00
2019-03-26T11:47:57.877Z,0.00
2019-03-26T11:50:27.519Z,1.50
2019-03-26T11:52:57.081Z,1.00
2019-03-26T11:55:26.722Z,0.00
2019-03-26T11:57:56.906Z,0.00
2019-03-26T12:00:31.579Z,1.00
2019-03-26T12:03:01.236Z,0.25
2019-03-26T12:05:30.758Z,1.00
2019-03-26T12:08:00.390Z,0.00
2019-03-26T12:10:30.128Z,1.00
2019-03-26T12:12:59.653Z,0.00
2019-03-26T12:15:29.342Z,1.00
2019-03-26T12:17:59.011Z,0.00
2019-03-26T12:20:28.543Z,0.25
2019-03-26T12:22:58.414Z,0.00
2019-03-26T12:25:27.930Z,1.00
2019-03-26T12:27:57.565Z,0.25
2019-03-26T12:30:34.798Z,0.25
2019-03-26T12:33:04.980Z,0.00
2019-03-26T12:35:34.650Z,0.00
2019-03-26T12:38:16.563Z,0.50
2019-03-26T12:40:46.193Z,0.00
2019-03-26T12:43:16.318Z,0.25
2019-03-26T12:45:45.997Z,0.50
2019-03-26T12:48:17.297Z,0.00
2019-03-26T12:50:46.940Z,0.50
2019-03-26T12:53:16.529Z,3.00
2019-03-26T12:55:46.351Z,0.00
2019-03-26T12:58:15.921Z,1.00
2019-03-26T13:00:45.478Z,0.00
2019-03-26T13:03:14.996Z,0.00
2019-03-26T13:05:44.688Z,5.00
2019-03-26T13:08:14.408Z,0.00
2019-03-26T13:10:53.566Z,0.00
2019-03-26T13:13:15.365Z,5.00
2019-03-26T13:15:44.879Z,0.75
2019-03-26T13:18:14.472Z,0.75
2019-03-26T13:20:44.201Z,3.00
2019-03-26T13:23:13.723Z,1.00
2019-03-26T13:25:43.325Z,0.00
2019-03-26T13:28:13.330Z,0.50
2019-03-26T13:30:42.932Z,0.50
2019-03-26T13:33:15.379Z,0.00
2019-03-26T13:35:45.024Z,3.00
2019-03-26T13:38:15.750Z,1.00
2019-03-26T13:40:45.285Z,0.75
2019-03-26T13:43:14.860Z,1.00
2019-03-26T13:45:44.620Z,1.00
2019-03-26T13:48:14.231Z,0.50
2019-03-26T13:50:45.034Z,2.50
2019-03-26T13:53:14.571Z,1.00
2019-03-26T13:55:44.333Z,1.50
2019-03-26T13:58:13.875Z,1.00
2019-03-26T14:00:43.702Z,2.50
2019-03-26T14:03:13.344Z,0.75
2019-03-26T14:05:42.887Z,3.00
2019-03-26T14:08:12.506Z,1.00
2019-03-26T14:10:42.227Z,1.00
2019-03-26T14:13:11.838Z,1.00
2019-03-26T14:15:41.633Z,1.00
2019-03-26T14:18:11.179Z,2.00
2019-03-26T14:20:40.840Z,1.50
2019-03-26T14:23:13.628Z,1.00
2019-03-26T14:25:43.263Z,3.00
2019-03-26T14:28:14.619Z,1.50
2019-03-26T14:30:45.868Z,3.00
2019-03-26T14:33:15.789Z,2.00
2019-03-26T14:35:45.323Z,3.00
2019-03-26T14:38:15.027Z,1.50
2019-03-26T14:40:54.469Z,1.00
2019-03-26T14:43:16.055Z,3.00
2019-03-26T14:45:45.707Z,1.50
2019-03-26T14:48:15.259Z,3.00
2019-03-26T14:50:46.027Z,4.50
2019-03-26T14:53:15.688Z,3.00
2019-03-26T14:55:45.219Z,3.00
2019-03-26T14:58:14.987Z,1.00
2019-03-26T15:00:44.633Z,3.00
2019-03-26T15:03:14.242Z,4.00
2019-03-26T15:05:43.930Z,3.00
2019-03-26T15:08:13.574Z,5.00
2019-03-26T15:10:43.108Z,7.00
2019-03-26T15:13:12.635Z,5.00
2019-03-26T15:15:42.180Z,5.00
2019-03-26T15:18:11.816Z,6.00
2019-03-26T15:20:41.451Z,4.00
2019-03-26T15:23:11.038Z,5.00
2019-03-26T15:25:40.565Z,5.00
2019-03-26T15:28:11.746Z,4.00
2019-03-26T15:30:43.746Z,4.50
2019-03-26T15:33:13.395Z,5.50
2019-03-26T15:35:43.092Z,3.00
2019-03-26T15:38:12.830Z,3.50
2019-03-26T15:40:42.401Z,5.00
2019-03-26T15:43:11.963Z,6.00
2019-03-26T15:45:41.707Z,4.50
2019-03-26T15:48:11.319Z,5.50
2019-03-26T15:50:46.561Z,4.00
2019-03-26T15:53:16.340Z,5.00
2019-03-26T15:55:46.616Z,4.50
2019-03-26T15:58:16.356Z,5.00
2019-03-26T16:00:49.076Z,7.00
2019-03-26T16:03:18.724Z,7.00
2019-03-26T16:05:48.429Z,6.50
2019-03-26T16:08:18.054Z,6.50
2019-03-26T16:10:47.599Z,5.50
2019-03-26T16:13:17.187Z,8.50
2019-03-26T16:15:46.753Z,7.00
2019-03-26T16:18:16.416Z,7.00
2019-03-26T16:20:46.154Z,7.50
2019-03-26T16:23:15.703Z,7.00
2019-03-26T16:25:45.389Z,6.50
2019-03-26T16:28:15.055Z,7.00
2019-03-26T16:30:44.548Z,7.00
2019-03-26T16:33:14.198Z,5.00
2019-03-26T16:35:43.737Z,6.50
2019-03-26T16:38:13.358Z,9.00
2019-03-26T16:40:42.948Z,4.50
2019-03-26T16:43:12.471Z,7.50
2019-03-26T16:45:42.015Z,10.50
2019-03-26T16:48:11.547Z,10.50
2019-03-26T16:50:41.165Z,7.00
2019-03-26T16:53:10.792Z,7.00
2019-03-26T16:55:40.388Z,5.00
2019-03-26T16:58:09.915Z,6.50
2019-03-26T17:00:40.655Z,7.00
2019-03-26T17:03:10.318Z,17.00
2019-03-26T17:05:39.964Z,7.00
2019-03-26T17:08:09.739Z,15.75
2019-03-26T17:10:42.881Z,9.00
2019-03-26T17:13:12.486Z,10.00
2019-03-26T17:15:42.096Z,7.00
2019-03-26T17:18:11.745Z,7.00
2019-03-26T17:20:41.300Z,7.00
2019-03-26T17:23:10.825Z,5.50
2019-03-26T17:25:40.470Z,7.50
2019-03-26T17:28:10.065Z,5.50
2019-03-26T17:30:39.906Z,5.00
2019-03-26T17:33:09.557Z,8.00
2019-03-26T17:35:39.179Z,7.00
2019-03-26T17:38:08.788Z,7.00
2019-03-26T17:40:38.517Z,9.00
2019-03-26T17:43:08.160Z,7.00
2019-03-26T17:45:37.702Z,7.00
2019-03-26T17:48:07.346Z,7.00
2019-03-26T17:50:37.035Z,9.00
2019-03-26T17:53:06.704Z,5.00
2019-03-26T17:55:36.348Z,6.50
2019-03-26T17:58:05.951Z,7.00
2019-03-26T18:00:42.692Z,7.00
2019-03-26T18:03:25.811Z,6.00
2019-03-26T18:05:44.933Z,10.50
2019-03-26T18:08:14.592Z,6.50
2019-03-26T18:10:44.183Z,8.50
2019-03-26T18:13:13.813Z,7.00
2019-03-26T18:15:43.428Z,7.00
2019-03-26T18:18:13.056Z,7.00
2019-03-26T18:20:42.673Z,9.50
2019-03-26T18:23:12.276Z,6.50
2019-03-26T18:25:41.907Z,7.00
2019-03-26T18:28:11.523Z,5.50
2019-03-26T18:30:41.377Z,7.00
2019-03-26T18:33:11.017Z,9.00
2019-03-26T18:35:40.726Z,9.50
2019-03-26T18:38:10.279Z,6.50
2019-03-26T18:40:40.574Z,7.50
2019-03-26T18:43:10.275Z,9.00
2019-03-26T18:45:40.002Z,10.00
2019-03-26T18:48:09.636Z,7.00
2019-03-26T18:50:39.143Z,7.50
2019-03-26T18:53:11.123Z,8.00
2019-03-26T18:55:40.661Z,7.00
2019-03-26T18:58:10.181Z,9.00
2019-03-26T19:00:40.139Z,7.00
2019-03-26T19:03:09.778Z,14.00
2019-03-26T19:05:39.289Z,7.00
2019-03-26T19:08:09.156Z,6.50
2019-03-26T19:10:38.880Z,7.00
2019-03-26T19:13:18.731Z,9.00
2019-03-26T19:15:40.051Z,7.00
2019-03-26T19:18:09.660Z,6.25
2019-03-26T19:20:39.198Z,6.25
2019-03-26T19:23:08.826Z,7.75
2019-03-26T19:25:38.373Z,12.50
2019-03-26T19:28:07.880Z,8.00
2019-03-26T19:30:37.538Z,9.00
2019-03-26T19:33:07.241Z,15.00
2019-03-26T19:35:36.918Z,7.50
2019-03-26T19:38:06.552Z,7.00
2019-03-26T19:40:36.181Z,5.00
2019-03-26T19:43:11.208Z,10.50
2019-03-26T19:45:38.302Z,8.50
2019-03-26T19:48:07.822Z,7.75
2019-03-26T19:50:37.375Z,7.75
2019-03-26T19:53:06.953Z,8.00
2019-03-26T19:55:36.532Z,8.75
2019-03-26T19:58:06.238Z,7.75
2019-03-26T20:00:35.878Z,9.00
2019-03-26T20:03:05.610Z,8.75
2019-03-26T20:05:36.813Z,11.75
2019-03-26T20:08:06.562Z,9.75
2019-03-26T20:10:37.386Z,9.75
2019-03-26T20:13:06.958Z,8.25
2019-03-26T20:15:38.079Z,11.00
2019-03-26T20:18:07.687Z,14.50
2019-03-26T20:20:37.245Z,13.00
2019-03-26T20:23:06.937Z,9.50
2019-03-26T20:25:36.504Z,9.00
2019-03-26T20:28:06.109Z,8.50
2019-03-26T20:30:35.725Z,12.00
2019-03-26T20:33:05.338Z,10.50
2019-03-26T20:35:34.985Z,9.00
2019-03-26T20:38:04.634Z,11.00
2019-03-26T20:40:34.278Z,42.75
2019-03-26T20:43:03.857Z,16.50
2019-03-26T20:45:33.364Z,13.00
2019-03-26T20:48:02.921Z,11.75
2019-03-26T20:50:32.585Z,13.00
2019-03-26T20:53:02.100Z,12.25
2019-03-26T20:55:33.058Z,13.75
2019-03-26T20:58:02.774Z,12.25
2019-03-26T21:00:36.975Z,9.75
2019-03-26T21:03:06.873Z,13.75
2019-03-26T21:05:36.519Z,10.75
2019-03-26T21:08:06.308Z,10.25
2019-03-26T21:10:35.983Z,10.75
2019-03-26T21:13:05.727Z,13.25
2019-03-26T21:15:35.360Z,11.75
2019-03-26T21:18:05.021Z,12.25
2019-03-26T21:20:34.723Z,12.25
2019-03-26T21:23:04.391Z,12.25
2019-03-26T21:25:34.031Z,9.75
2019-03-26T21:28:03.709Z,10.75
2019-03-26T21:30:33.356Z,10.25
2019-03-26T21:33:02.877Z,13.75
2019-03-26T21:35:32.404Z,12.25
2019-03-26T21:38:02.667Z,13.50
2019-03-26T21:40:32.452Z,12.50
2019-03-26T21:43:02.005Z,12.50
2019-03-26T21:45:36.275Z,13.00
2019-03-26T21:48:07.815Z,16.00
2019-03-26T21:50:37.529Z,9.00
2019-03-26T21:53:07.230Z,13.00
2019-03-26T21:55:36.937Z,13.50
2019-03-26T21:58:12.557Z,11.00
2019-03-26T22:00:44.296Z,12.50
2019-03-26T22:03:13.377Z,15.00
2019-03-26T22:05:43.175Z,9.50
2019-03-26T22:08:12.711Z,12.25
2019-03-26T22:10:42.251Z,13.25
2019-03-26T22:13:11.825Z,12.75
2019-03-26T22:15:41.382Z,11.75
2019-03-26T22:18:10.997Z,11.75
2019-03-26T22:20:40.894Z,9.75
2019-03-26T22:23:10.580Z,10.75
2019-03-26T22:25:40.158Z,12.75
2019-03-26T22:28:09.726Z,12.75
2019-03-26T22:30:39.239Z,8.25
2019-03-26T22:33:08.778Z,11.50
2019-03-26T22:35:38.349Z,12.50
2019-03-26T22:38:07.897Z,13.50
2019-03-26T22:40:37.571Z,12.00
2019-03-26T22:43:07.177Z,14.50
2019-03-26T22:45:36.885Z,13.00
2019-03-26T22:48:08.819Z,14.50
2019-03-26T22:50:38.382Z,10.00
2019-03-26T22:53:08.031Z,10.00
2019-03-26T22:55:37.596Z,10.00
2019-03-26T22:58:07.219Z,12.00
2019-03-26T23:00:38.086Z,13.00
2019-03-26T23:03:08.283Z,10.00
2019-03-26T23:05:37.982Z,12.00
2019-03-26T23:08:08.377Z,11.50
2019-03-26T23:10:37.957Z,14.50
2019-03-26T23:13:07.581Z,10.00
2019-03-26T23:15:36.244Z,10.00
2019-03-26T23:18:05.972Z,11.50
2019-03-26T23:20:38.875Z,9.50
2019-03-26T23:23:08.440Z,12.00
2019-03-26T23:25:38.100Z,12.50
2019-03-26T23:28:07.729Z,14.00
2019-03-26T23:30:37.376Z,11.00
2019-03-26T23:35:35.545Z,12.00
2019-03-26T23:38:05.130Z,16.00
2019-03-26T23:40:37.009Z,12.50
2019-03-26T23:43:06.613Z,14.00
2019-03-26T23:45:36.158Z,16.00
2019-03-26T23:48:05.795Z,15.50
2019-03-26T23:50:36.550Z,14.00
2019-03-26T23:53:06.084Z,13.00
2019-03-26T23:55:35.733Z,14.00
2019-03-26T23:58:05.346Z,14.50
